createdAt,value
2022-12-07T00:03:05.305Z,98.82
2022-12-07T00:06:13.939Z,57.08
2022-12-07T00:09:22.306Z,38.65
2022-12-07T00:12:30.108Z,29.30
2022-12-07T00:15:37.612Z,36.15
2022-12-07T00:18:46.477Z,46.15
2022-12-07T00:21:52.950Z,49.47
2022-12-07T00:24:59.151Z,46.17
2022-12-07T00:28:06.600Z,44.08
2022-12-07T00:31:14.911Z,27.77
2022-12-07T00:34:22.806Z,48.72
2022-12-07T00:37:29.147Z,49.88
2022-12-07T00:40:35.647Z,39.78
2022-12-07T00:43:43.754Z,34.63
2022-12-07T00:46:51.578Z,49.00
2022-12-07T00:49:59.804Z,56.63
2022-12-07T00:53:07.051Z,57.97
2022-12-07T00:56:21.140Z,49.78
2022-12-07T00:59:26.881Z,31.50
2022-12-07T01:02:32.775Z,39.47
2022-12-07T01:05:39.476Z,45.38
2022-12-07T01:08:46.444Z,66.88
2022-12-07T01:11:52.905Z,49.30
2022-12-07T01:14:58.920Z,33.60
2022-12-07T01:18:05.820Z,44.60
2022-12-07T01:21:18.179Z,24.50
2022-12-07T01:24:24.973Z,19.40
2022-12-07T01:27:30.726Z,27.80
2022-12-07T01:30:37.173Z,36.03
2022-12-07T01:33:45.112Z,30.60
2022-12-07T01:36:51.283Z,37.40
2022-12-07T01:39:57.556Z,28.40
2022-12-07T01:43:04.135Z,42.13
2022-12-07T01:46:10.708Z,25.73
2022-12-07T01:49:24.529Z,26.88
2022-12-07T01:52:35.412Z,21.50
2022-12-07T01:55:45.638Z,56.75
2022-12-07T01:58:52.575Z,23.05
2022-12-07T02:01:58.735Z,40.30
2022-12-07T02:05:06.994Z,25.77
2022-12-07T02:08:15.298Z,33.05
2022-12-07T02:11:22.180Z,34.88
2022-12-07T02:14:28.043Z,28.98
2022-12-07T02:17:57.350Z,39.75
2022-12-07T02:21:29.124Z,44.17
2022-12-07T02:24:56.055Z,28.13
2022-12-07T02:28:10.900Z,23.55
2022-12-07T02:31:24.952Z,39.72
2022-12-07T02:34:47.293Z,33.72
2022-12-07T02:41:20.056Z,60.78
2022-12-07T02:44:29.950Z,66.00
2022-12-07T02:47:38.777Z,43.03
2022-12-07T02:50:51.388Z,33.83
2022-12-07T02:53:57.500Z,24.10
2022-12-07T02:57:33.623Z,40.92
2022-12-07T03:01:09.329Z,21.00
2022-12-07T03:04:37.705Z,26.65
2022-12-07T03:07:58.735Z,53.78
2022-12-07T03:11:11.598Z,54.13
2022-12-07T03:14:26.775Z,29.02
2022-12-07T03:17:39.345Z,37.72
2022-12-07T03:20:48.434Z,32.17
2022-12-07T03:23:58.572Z,52.67
2022-12-07T03:27:41.385Z,47.47
2022-12-07T03:30:55.291Z,58.17
2022-12-07T03:34:05.333Z,36.47
2022-12-07T03:37:20.636Z,27.92
2022-12-07T03:40:41.870Z,31.73
2022-12-07T03:43:48.304Z,30.98
2022-12-07T03:47:06.473Z,35.95
2022-12-07T03:50:27.214Z,41.78
2022-12-07T03:53:46.476Z,44.17
2022-12-07T03:56:54.581Z,54.67
2022-12-07T04:00:02.224Z,23.35
2022-12-07T04:03:17.861Z,77.97
2022-12-07T04:06:24.208Z,31.23
2022-12-07T04:09:29.939Z,40.95
2022-12-07T04:12:36.052Z,54.75
2022-12-07T04:15:42.010Z,25.83
2022-12-07T04:18:48.364Z,50.42
2022-12-07T04:21:56.361Z,22.83
2022-12-07T04:25:03.390Z,67.50
2022-12-07T04:28:10.011Z,26.48
2022-12-07T04:31:16.547Z,27.63
2022-12-07T04:34:24.588Z,65.95
2022-12-07T04:37:32.307Z,96.03
2022-12-07T04:40:38.679Z,42.55
2022-12-07T04:43:45.424Z,50.15
2022-12-07T04:46:52.861Z,25.25
2022-12-07T04:50:00.849Z,21.52
2022-12-07T04:53:07.765Z,41.47
2022-12-07T04:56:13.717Z,71.13
2022-12-07T04:59:20.919Z,101.85
2022-12-07T05:02:26.849Z,50.20
2022-12-07T05:05:33.850Z,69.00
2022-12-07T05:08:41.251Z,33.45
2022-12-07T05:11:47.964Z,84.50
2022-12-07T05:19:21.868Z,69.60
2022-12-07T05:22:29.693Z,67.25
2022-12-07T05:25:36.327Z,62.33
2022-12-07T05:28:42.998Z,47.60
2022-12-07T05:31:49.927Z,43.00
2022-12-07T05:34:56.615Z,36.10
2022-12-07T05:38:03.434Z,50.67
2022-12-07T05:41:30.929Z,32.03
2022-12-07T05:44:37.196Z,44.95
2022-12-07T05:47:43.568Z,21.92
2022-12-07T05:50:50.929Z,49.15
2022-12-07T05:53:57.463Z,85.32
2022-12-07T05:57:04.791Z,33.65
2022-12-07T06:00:12.647Z,37.72
2022-12-07T06:03:19.779Z,78.32
2022-12-07T06:06:26.468Z,53.45
2022-12-07T06:09:33.939Z,57.78
2022-12-07T06:12:44.548Z,37.90
2022-12-07T06:15:52.941Z,50.38
2022-12-07T06:18:59.066Z,38.20
2022-12-07T06:22:06.214Z,43.05
2022-12-07T06:25:14.169Z,62.70
2022-12-07T06:28:20.986Z,76.45
2022-12-07T06:31:28.499Z,57.75
2022-12-07T06:34:36.094Z,46.70
2022-12-07T06:37:42.119Z,32.22
2022-12-07T06:40:48.833Z,77.10
2022-12-07T06:43:56.419Z,53.58
2022-12-07T06:47:38.439Z,40.80
2022-12-07T06:50:28.476Z,84.25
2022-12-07T06:53:34.998Z,29.80
2022-12-07T06:56:41.110Z,60.67
2022-12-07T06:59:48.577Z,53.42
2022-12-07T07:02:54.267Z,73.72
2022-12-07T07:06:00.680Z,42.85
2022-12-07T07:09:06.644Z,87.07
2022-12-07T07:12:12.812Z,47.05
2022-12-07T07:15:18.968Z,50.10
2022-12-07T07:18:25.518Z,90.18
2022-12-07T07:21:31.820Z,44.85
2022-12-07T07:24:37.544Z,26.17
2022-12-07T07:27:43.808Z,39.67
2022-12-07T07:30:49.237Z,16.85
2022-12-07T07:33:55.468Z,40.55
2022-12-07T07:37:01.471Z,37.63
2022-12-07T07:40:09.093Z,31.80
2022-12-07T07:43:14.834Z,35.90
2022-12-07T07:46:20.732Z,40.58
2022-12-07T07:49:27.293Z,25.15
2022-12-07T07:52:33.696Z,65.93
2022-12-07T07:55:39.347Z,43.00
2022-12-07T07:58:45.484Z,35.28
2022-12-07T08:01:53.376Z,82.95
2022-12-07T08:04:59.101Z,30.75
2022-12-07T08:08:05.826Z,42.25
2022-12-07T08:11:11.941Z,34.13
2022-12-07T08:14:17.689Z,31.50
2022-12-07T08:17:23.420Z,35.47
2022-12-07T08:20:33.914Z,41.53
2022-12-07T08:23:40.331Z,33.78
2022-12-07T08:26:47.951Z,26.33
2022-12-07T08:29:53.265Z,71.38
2022-12-07T08:32:59.350Z,55.00
2022-12-07T08:36:08.559Z,49.00
2022-12-07T08:42:41.589Z,28.75
2022-12-07T08:45:52.931Z,31.60
2022-12-07T08:49:28.277Z,30.63
2022-12-07T08:52:35.327Z,51.20
2022-12-07T08:55:41.227Z,53.47
2022-12-07T08:58:47.806Z,31.63
2022-12-07T09:01:54.604Z,35.25
2022-12-07T09:05:00.453Z,38.33
2022-12-07T09:08:07.929Z,51.65
2022-12-07T09:11:13.738Z,46.20
2022-12-07T09:14:20.548Z,49.58
2022-12-07T09:17:26.587Z,78.00
2022-12-07T09:20:33.220Z,63.25
2022-12-07T09:23:39.647Z,101.85
2022-12-07T09:26:45.986Z,93.53
2022-12-07T09:29:52.057Z,80.93
2022-12-07T09:32:59.104Z,84.25
2022-12-07T09:36:06.531Z,58.90
2022-12-07T09:39:11.987Z,48.92
2022-12-07T09:42:38.164Z,45.17
2022-12-07T09:45:48.313Z,46.10
2022-12-07T09:48:54.397Z,41.40
2022-12-07T09:52:14.036Z,31.50
2022-12-07T09:55:26.552Z,47.70
2022-12-07T09:58:34.818Z,32.70
2022-12-07T10:01:41.411Z,28.30
2022-12-07T10:04:47.765Z,37.08
2022-12-07T10:07:53.814Z,27.05
2022-12-07T10:11:02.534Z,22.42
2022-12-07T10:14:15.455Z,28.40
2022-12-07T10:17:46.349Z,27.23
2022-12-07T10:21:03.874Z,26.90
2022-12-07T10:24:12.545Z,22.25
2022-12-07T10:27:33.943Z,24.27
2022-12-07T10:30:51.150Z,26.20
2022-12-07T10:34:02.269Z,30.48
2022-12-07T10:37:17.078Z,25.85
2022-12-07T10:40:29.679Z,23.00
2022-12-07T10:43:35.678Z,30.65
2022-12-07T10:46:46.749Z,24.50
2022-12-07T10:50:18.621Z,25.65
2022-12-07T10:53:33.488Z,21.27
2022-12-07T10:56:58.744Z,26.30
2022-12-07T11:00:22.487Z,24.42
2022-12-07T11:03:55.832Z,25.88
2022-12-07T11:07:24.365Z,31.85
2022-12-07T11:10:51.725Z,22.30
2022-12-07T11:14:27.295Z,23.33
2022-12-07T11:18:03.545Z,20.95
2022-12-07T11:21:46.230Z,30.15
2022-12-07T11:25:17.939Z,23.30
2022-12-07T11:29:06.923Z,26.05
2022-12-07T11:32:53.878Z,25.65
2022-12-07T11:36:33.066Z,22.45
2022-12-07T11:39:55.663Z,24.48
2022-12-07T11:43:30.281Z,25.10
2022-12-07T11:46:48.552Z,20.83
2022-12-07T11:50:21.679Z,30.73
2022-12-07T11:53:41.205Z,26.90
2022-12-07T11:56:51.518Z,28.35
2022-12-07T12:00:05.062Z,25.17
2022-12-07T12:03:21.942Z,34.60
2022-12-07T12:06:28.489Z,27.38
2022-12-07T12:09:45.681Z,27.17
2022-12-07T12:16:45.127Z,24.02
2022-12-07T12:20:03.078Z,23.27
2022-12-07T12:23:19.877Z,26.00
2022-12-07T12:26:30.011Z,23.15
2022-12-07T12:29:42.259Z,22.80
2022-12-07T12:36:17.075Z,22.80
2022-12-07T12:39:25.244Z,30.02
2022-12-07T12:42:47.351Z,24.67
2022-12-07T12:46:30.954Z,28.45
2022-12-07T12:49:45.921Z,25.17
2022-12-07T12:52:56.335Z,24.58
2022-12-07T12:56:14.566Z,24.35
2022-12-07T12:59:24.180Z,26.35
2022-12-07T13:02:48.700Z,30.50
2022-12-07T13:06:37.108Z,33.25
2022-12-07T13:09:46.450Z,32.28
2022-12-07T13:13:16.453Z,34.97
2022-12-07T13:16:25.326Z,27.55
2022-12-07T13:19:43.324Z,35.15
2022-12-07T13:22:51.570Z,29.55
2022-12-07T13:26:33.733Z,38.92
2022-12-07T13:29:40.101Z,32.50
2022-12-07T13:32:57.282Z,32.78
2022-12-07T13:36:03.912Z,30.70
2022-12-07T13:39:16.143Z,30.15
2022-12-07T13:42:30.601Z,27.25
2022-12-07T13:45:52.234Z,30.67
2022-12-07T13:48:58.671Z,27.77
2022-12-07T13:52:34.309Z,30.38
2022-12-07T13:55:53.790Z,27.05
2022-12-07T13:59:00.725Z,30.05
2022-12-07T14:02:34.141Z,28.10
2022-12-07T14:05:43.571Z,29.50
2022-12-07T14:08:52.124Z,32.22
2022-12-07T14:12:08.376Z,32.50
2022-12-07T14:15:32.275Z,34.35
2022-12-07T14:18:41.467Z,32.80
2022-12-07T14:21:48.017Z,35.60
2022-12-07T14:25:17.993Z,38.28
2022-12-07T14:28:32.367Z,40.45
2022-12-07T14:31:39.185Z,37.20
2022-12-07T14:35:11.978Z,39.03
2022-12-07T14:38:19.976Z,35.38
2022-12-07T14:41:44.143Z,33.33
2022-12-07T14:44:49.926Z,35.15
2022-12-07T14:54:49.219Z,37.53
2022-12-07T14:57:56.203Z,37.20
2022-12-07T15:01:03.074Z,37.15
2022-12-07T15:04:09.254Z,38.17
2022-12-07T15:07:25.252Z,42.22
2022-12-07T15:10:34.632Z,51.92
2022-12-07T15:13:59.949Z,35.65
2022-12-07T15:17:09.097Z,38.17
2022-12-07T15:20:18.418Z,40.72
2022-12-07T15:23:24.380Z,31.52
2022-12-07T15:26:29.727Z,34.92
2022-12-07T15:29:36.096Z,37.25
2022-12-07T15:32:42.386Z,33.35
2022-12-07T15:35:49.087Z,35.63
2022-12-07T15:39:13.544Z,38.28
2022-12-07T15:42:23.044Z,31.90
2022-12-07T15:45:29.323Z,36.58
2022-12-07T15:48:36.006Z,37.28
2022-12-07T15:51:44.185Z,37.92
2022-12-07T15:54:50.638Z,45.83
2022-12-07T15:57:57.320Z,38.22
2022-12-07T16:01:14.967Z,42.80
2022-12-07T16:04:22.945Z,40.47
2022-12-07T16:07:28.760Z,39.30
2022-12-07T16:10:36.190Z,42.17
2022-12-07T16:13:42.568Z,41.47
2022-12-07T16:16:50.079Z,41.63
2022-12-07T16:19:56.585Z,42.47
2022-12-07T16:23:03.518Z,48.50
2022-12-07T16:26:15.034Z,48.15
2022-12-07T16:29:23.407Z,49.88
2022-12-07T16:32:28.943Z,51.40
2022-12-07T16:35:34.366Z,89.88
2022-12-07T16:38:40.016Z,66.38
2022-12-07T16:41:45.894Z,69.15
2022-12-07T16:44:51.672Z,84.75
2022-12-07T16:47:57.773Z,97.88
2022-12-07T16:51:07.050Z,101.93
2022-12-07T16:54:15.625Z,78.28
2022-12-07T16:57:24.075Z,95.75
2022-12-07T17:00:32.436Z,114.47
2022-12-07T17:03:40.526Z,73.88
2022-12-07T17:06:50.934Z,73.38
2022-12-07T17:10:01.416Z,79.25
2022-12-07T17:13:28.183Z,94.05
2022-12-07T17:16:37.496Z,61.47
2022-12-07T17:19:49.775Z,81.70
2022-12-07T17:22:59.040Z,69.30
2022-12-07T17:26:10.958Z,104.07
2022-12-07T17:29:21.765Z,59.97
2022-12-07T17:32:39.249Z,64.32
2022-12-07T17:35:49.996Z,82.43
2022-12-07T17:39:00.597Z,112.15
2022-12-07T17:42:31.097Z,76.93
2022-12-07T17:45:46.125Z,65.17
2022-12-07T17:49:00.045Z,86.88
2022-12-07T17:52:40.046Z,96.45
2022-12-07T17:56:26.965Z,57.75
2022-12-07T17:59:28.091Z,64.18
2022-12-07T18:02:38.246Z,54.95
2022-12-07T18:05:51.490Z,70.07
2022-12-07T18:09:05.410Z,44.00
2022-12-07T18:12:14.379Z,58.63
2022-12-07T18:15:23.572Z,95.07
2022-12-07T18:18:36.549Z,63.20
2022-12-07T18:21:48.066Z,37.95
2022-12-07T18:24:57.676Z,70.40
2022-12-07T18:28:06.795Z,94.70
2022-12-07T18:31:22.784Z,122.40
2022-12-07T18:34:34.521Z,81.50
2022-12-07T18:37:44.257Z,99.43
2022-12-07T18:40:53.726Z,74.57
2022-12-07T18:44:06.276Z,111.93
2022-12-07T18:47:14.729Z,81.03
2022-12-07T18:50:32.871Z,68.53
2022-12-07T18:53:44.796Z,88.27
2022-12-07T18:56:53.152Z,73.80
2022-12-07T19:00:00.966Z,66.28
2022-12-07T19:03:08.779Z,97.32
2022-12-07T19:06:18.687Z,65.63
2022-12-07T19:09:25.965Z,72.55
2022-12-07T19:12:35.007Z,85.50
2022-12-07T19:15:43.450Z,41.83
2022-12-07T19:18:51.693Z,60.67
2022-12-07T19:22:00.185Z,45.08
2022-12-07T19:25:09.412Z,48.08
2022-12-07T19:28:17.869Z,70.65
2022-12-07T19:31:26.200Z,81.40
2022-12-07T19:34:36.004Z,38.80
2022-12-07T19:37:44.837Z,94.32
2022-12-07T19:40:53.370Z,66.95
2022-12-07T19:44:11.130Z,37.28
2022-12-07T19:47:20.595Z,84.65
2022-12-07T19:50:32.153Z,54.92
2022-12-07T19:53:42.549Z,48.45
2022-12-07T19:56:53.845Z,62.00
2022-12-07T20:00:08.995Z,46.08
2022-12-07T20:03:19.023Z,42.20
2022-12-07T20:06:28.622Z,59.47
2022-12-07T20:09:37.398Z,130.43
2022-12-07T20:13:03.734Z,90.43
2022-12-07T20:16:19.726Z,85.53
2022-12-07T20:19:29.932Z,104.57
2022-12-07T20:22:40.817Z,66.13
2022-12-07T20:25:52.323Z,101.10
2022-12-07T20:29:07.731Z,110.22
2022-12-07T20:32:18.497Z,128.23
2022-12-07T20:35:26.971Z,130.95
2022-12-07T20:38:36.289Z,126.55
2022-12-07T20:42:06.791Z,123.78
2022-12-07T20:45:17.748Z,93.57
2022-12-07T20:48:26.175Z,98.05
2022-12-07T20:51:34.457Z,88.25
2022-12-07T20:54:41.708Z,91.90
2022-12-07T20:57:49.961Z,82.65
2022-12-07T21:01:05.002Z,49.97
2022-12-07T21:04:15.231Z,99.43
2022-12-07T21:07:25.505Z,101.68
2022-12-07T21:10:34.891Z,88.43
2022-12-07T21:13:44.176Z,115.32
2022-12-07T21:16:52.937Z,101.13
2022-12-07T21:20:02.244Z,103.72
2022-12-07T21:23:10.686Z,96.53
2022-12-07T21:26:27.218Z,121.07
2022-12-07T21:29:43.667Z,78.50
2022-12-07T21:32:53.233Z,93.10
2022-12-07T21:36:05.202Z,150.43
2022-12-07T21:42:22.147Z,101.78
2022-12-07T21:45:29.317Z,67.55
2022-12-07T21:48:38.418Z,119.43
2022-12-07T21:51:46.823Z,89.97
2022-12-07T21:54:54.183Z,78.43
2022-12-07T21:58:01.411Z,74.32
2022-12-07T22:01:08.556Z,49.92
2022-12-07T22:04:19.060Z,76.72
2022-12-07T22:07:26.731Z,76.63
2022-12-07T22:10:34.346Z,74.63
2022-12-07T22:14:05.301Z,60.95
2022-12-07T22:17:17.448Z,65.68
2022-12-07T22:20:26.590Z,46.70
2022-12-07T22:23:34.300Z,41.42
2022-12-07T22:26:44.319Z,60.58
2022-12-07T22:29:51.892Z,53.58
2022-12-07T22:33:00.439Z,69.93
2022-12-07T22:36:09.515Z,54.90
2022-12-07T22:39:17.007Z,68.50
2022-12-07T22:42:26.344Z,42.53
2022-12-07T22:45:34.147Z,43.58
2022-12-07T22:48:42.900Z,57.55
2022-12-07T22:51:50.768Z,60.08
2022-12-07T22:54:58.322Z,48.40
2022-12-07T22:58:05.692Z,46.20
2022-12-07T23:01:16.547Z,39.35
2022-12-07T23:04:25.059Z,81.25
2022-12-07T23:07:33.298Z,45.28
2022-12-07T23:10:49.755Z,78.72
2022-12-07T23:13:56.809Z,60.25
2022-12-07T23:17:06.546Z,48.80
2022-12-07T23:20:15.403Z,44.30
2022-12-07T23:23:23.711Z,52.17
2022-12-07T23:26:32.216Z,64.20
2022-12-07T23:29:40.295Z,47.70
2022-12-07T23:32:48.785Z,41.67
2022-12-07T23:35:56.049Z,59.42
2022-12-07T23:39:04.803Z,48.72
2022-12-07T23:42:12.801Z,45.17
2022-12-07T23:45:21.106Z,40.90
2022-12-07T23:48:28.683Z,72.78
2022-12-07T23:51:36.288Z,69.15
2022-12-07T23:54:43.580Z,55.88
2022-12-07T23:57:51.605Z,44.35
